Main page
METAR-TAF:

METAR-TAF

Airports :

Shahrekord Airport

Shahrekord, Iran

latitude: 32-20N, longitude: 050-51E, elevation: 2078 m

Current weather observation

The report was made 26 minutes ago, at 15:00 UTC
Wind 12 kt from the West/Southwest
Temperature 30°C
Humidity 13%
Pressure 1012 hPa
Visibility 10 km or more
Few clouds at a height of 4000 ft

METAR: OIFS 231500Z 24012KT 9999 FEW040 30/M01 Q1012

Time: 19:56 (15:26 UTC)


TAF: missing

Weather observations and forecasts of more than 4000 airports (METAR and TAF reports).

The available stations are represented by yellow and red dots on the map.

Hover mouse over dot to see the name of the station.

Then click to see weather observations and forecasts.

To change the map : click on the green buttons with a black cross to zoom in, on the green button with a dash to zoom out, or on the green arrows for adjacent maps.


METAR-TAF: